メインページ
METAR-TAF:

METAR-TAF

空港 :

メヘラーバード国際空港

テヘラン, イラン

緯度: 35-41N, 経度: 051-21E, 海抜: 1204m

現時点の気象観測

当レポートは33分前の09:00(UTC)に作成
東/南東の風 6kt
気温 15°C
湿度 39%
気圧 1021 hPa
視程: 6000m
高度3500ftの雲はほとんどない

METAR: OIII 220900Z 11006KT 6000 FEW035 15/01 Q1020 A3014 NOSIG

時間: 13:03 (09:33 UTC)

予報

当レポートは4時間3分前の05:30(UTC)に作成
予報は22日の 06時(UTC)から 23日の 12時(UTC)まで有効
南東の風 8kt
視程: 8000m
22日の 12時(UTC)から 22日の 18時(UTC)まで一時的に
高度3500ftの雲はほとんどない, 塔状積雲.
高度4000ftの雲は散在している
高度10000ftの雲は散在している

TAF: OIII 220530Z 2206/2312 14008KT 8000 NSC TEMPO 2212/2218 FEW035TCU SCT040 SCT100

4,000以上の空港の気象観測と天気予報(METAR報とTAF報)

利用可能な観測所は地図上に黄色い丸と赤い丸で示す。

丸の上にカーソルを重ねると観測所名を参照できる。

次にクリックすると気象観測と天気予報を参照できる。

マップの切り替え:黒色「×」印の緑ボタンをクリックして拡大、「-」印の緑ボタンをクリックして縮小、緑色の三角印をクリックして隣りの地図に切り替え


METAR-TAF: